sensor_id;sensor_type;location;lat;lon;timestamp;pressure;altitude;pressure_sealevel;temperature;humidity
33414;BME280;60055;41.884;12.534;2023-03-19T08:20:14;101528.25;;;13.79;61.79
33414;BME280;60055;41.884;12.534;2023-03-19T08:22:47;101531.63;;;14.07;61.02
33414;BME280;60055;41.884;12.534;2023-03-19T08:25:24;101535.16;;;14.08;61.44
33414;BME280;60055;41.884;12.534;2023-03-19T08:27:50;101536.59;;;14.16;61.48
33414;BME280;60055;41.884;12.534;2023-03-19T08:30:18;101531.59;;;14.32;60.90
33414;BME280;60055;41.884;12.534;2023-03-19T08:38:58;101555.25;;;14.15;60.95
33414;BME280;60055;41.884;12.534;2023-03-19T08:42:10;101553.13;;;13.76;61.65
33414;BME280;60055;41.884;12.534;2023-03-19T08:44:52;101554.50;;;14.11;61.09
33414;BME280;60055;41.884;12.534;2023-03-19T08:47:32;101556.91;;;14.64;60.30
33414;BME280;60055;41.884;12.534;2023-03-19T08:50:10;101547.69;;;14.51;60.23
33414;BME280;60055;41.884;12.534;2023-03-19T08:52:38;101552.19;;;14.72;59.46
33414;BME280;60055;41.884;12.534;2023-03-19T08:55:14;101562.91;;;14.91;58.92
33414;BME280;60055;41.884;12.534;2023-03-19T08:57:41;101564.78;;;15.10;58.61
33414;BME280;60055;41.884;12.534;2023-03-19T09:00:09;101564.59;;;15.15;57.64
33414;BME280;60055;41.884;12.534;2023-03-19T09:02:34;101566.00;;;15.23;58.01
33414;BME280;60055;41.884;12.534;2023-03-19T09:10:10;101559.22;;;15.16;57.60
33414;BME280;60055;41.884;12.534;2023-03-19T09:15:35;101564.63;;;15.35;57.76
33414;BME280;60055;41.884;12.534;2023-03-19T09:23:11;101552.50;;;15.28;58.69
33414;BME280;60055;41.884;12.534;2023-03-19T09:25:36;101557.03;;;15.26;59.81
33414;BME280;60055;41.884;12.534;2023-03-19T09:28:02;101553.84;;;15.38;59.41
33414;BME280;60055;41.884;12.534;2023-03-19T09:30:27;101549.78;;;15.71;58.21
33414;BME280;60055;41.884;12.534;2023-03-19T09:32:53;101550.59;;;15.92;57.90
33414;BME280;60055;41.884;12.534;2023-03-19T09:35:18;101547.38;;;16.04;58.22
33414;BME280;60055;41.884;12.534;2023-03-19T09:37:43;101550.69;;;15.70;59.50
33414;BME280;60055;41.884;12.534;2023-03-19T09:40:29;101553.88;;;15.58;60.43
33414;BME280;60055;41.884;12.534;2023-03-19T09:45:51;101557.47;;;15.98;59.20
33414;BME280;60055;41.884;12.534;2023-03-19T09:48:30;101559.13;;;16.00;59.34
33414;BME280;60055;41.884;12.534;2023-03-19T09:51:04;101567.78;;;16.05;59.87
33414;BME280;60055;41.884;12.534;2023-03-19T09:53:46;101561.31;;;15.91;59.79
33414;BME280;60055;41.884;12.534;2023-03-19T09:56:14;101562.84;;;15.96;59.70
33414;BME280;60055;41.884;12.534;2023-03-19T09:58:41;101558.38;;;15.97;59.99
33414;BME280;60055;41.884;12.534;2023-03-19T10:01:37;101552.56;;;16.07;59.68
33414;BME280;60055;41.884;12.534;2023-03-19T10:04:39;101548.56;;;16.36;59.26
33414;BME280;60055;41.884;12.534;2023-03-19T10:13:12;101530.06;;;17.06;56.37
33414;BME280;60055;41.884;12.534;2023-03-19T10:15:43;101524.56;;;17.09;57.39
33414;BME280;60055;41.884;12.534;2023-03-19T10:18:15;101525.50;;;17.08;57.48
33414;BME280;60055;41.884;12.534;2023-03-19T10:21:10;101513.88;;;17.09;57.38
33414;BME280;60055;41.884;12.534;2023-03-19T10:23:53;101514.81;;;17.08;57.24
33414;BME280;60055;41.884;12.534;2023-03-19T10:26:28;101517.97;;;16.99;56.89
33414;BME280;60055;41.884;12.534;2023-03-19T10:34:36;101505.72;;;17.12;57.56
33414;BME280;60055;41.884;12.534;2023-03-19T10:37:04;101502.13;;;17.13;56.37
33414;BME280;60055;41.884;12.534;2023-03-19T10:39:33;101497.72;;;17.12;55.92
33414;BME280;60055;41.884;12.534;2023-03-19T10:42:07;101497.88;;;17.09;55.83
33414;BME280;60055;41.884;12.534;2023-03-19T10:44:52;101505.31;;;16.67;57.34
33414;BME280;60055;41.884;12.534;2023-03-19T10:47:24;101507.84;;;16.70;57.46
33414;BME280;60055;41.884;12.534;2023-03-19T10:49:50;101512.63;;;16.45;57.51
33414;BME280;60055;41.884;12.534;2023-03-19T10:52:20;101510.97;;;16.61;57.60
33414;BME280;60055;41.884;12.534;2023-03-19T10:54:53;101496.41;;;16.68;57.20
33414;BME280;60055;41.884;12.534;2023-03-19T10:57:25;101503.38;;;16.70;56.95
33414;BME280;60055;41.884;12.534;2023-03-19T10:59:52;101505.72;;;16.59;57.57
33414;BME280;60055;41.884;12.534;2023-03-19T11:02:24;101501.94;;;16.63;57.67
33414;BME280;60055;41.884;12.534;2023-03-19T11:05:25;101502.03;;;16.62;58.27
33414;BME280;60055;41.884;12.534;2023-03-19T11:10:26;101502.50;;;16.70;58.28
33414;BME280;60055;41.884;12.534;2023-03-19T11:12:55;101503.53;;;16.67;58.46
33414;BME280;60055;41.884;12.534;2023-03-19T11:15:34;101509.72;;;16.68;58.63
33414;BME280;60055;41.884;12.534;2023-03-19T11:18:15;101506.81;;;16.55;59.02
33414;BME280;60055;41.884;12.534;2023-03-19T11:20:51;101510.44;;;16.53;59.05
33414;BME280;60055;41.884;12.534;2023-03-19T11:23:19;101507.44;;;16.42;59.35
33414;BME280;60055;41.884;12.534;2023-03-19T11:25:46;101501.47;;;16.55;59.05
33414;BME280;60055;41.884;12.534;2023-03-19T11:28:17;101512.66;;;16.43;59.35
33414;BME280;60055;41.884;12.534;2023-03-19T11:39:03;101502.03;;;16.24;60.04
33414;BME280;60055;41.884;12.534;2023-03-19T11:47:27;101492.88;;;16.30;59.73
33414;BME280;60055;41.884;12.534;2023-03-19T11:55:34;101480.94;;;16.01;60.77
33414;BME280;60055;41.884;12.534;2023-03-19T12:00:47;101476.97;;;16.10;60.78
33414;BME280;60055;41.884;12.534;2023-03-19T12:03:24;101473.78;;;16.20;60.70
33414;BME280;60055;41.884;12.534;2023-03-19T12:06:01;101467.22;;;16.09;61.28
33414;BME280;60055;41.884;12.534;2023-03-19T12:08:48;101459.69;;;16.18;60.65
33414;BME280;60055;41.884;12.534;2023-03-19T12:14:56;101463.03;;;16.41;59.93
33414;BME280;60055;41.884;12.534;2023-03-19T12:22:49;101453.56;;;16.71;59.14
33414;BME280;60055;41.884;12.534;2023-03-19T12:30:38;101454.13;;;16.42;61.06
33414;BME280;60055;41.884;12.534;2023-03-19T12:33:08;101450.84;;;16.72;60.27
33414;BME280;60055;41.884;12.534;2023-03-19T12:35:39;101457.13;;;16.89;59.29
33414;BME280;60055;41.884;12.534;2023-03-19T12:38:12;101451.97;;;17.03;59.12
33414;BME280;60055;41.884;12.534;2023-03-19T12:41:17;101443.69;;;17.07;59.16
33414;BME280;60055;41.884;12.534;2023-03-19T12:46:32;101450.03;;;17.39;58.49
33414;BME280;60055;41.884;12.534;2023-03-19T12:49:04;101448.25;;;17.40;58.10
33414;BME280;60055;41.884;12.534;2023-03-19T12:51:37;101454.84;;;17.32;58.01
33414;BME280;60055;41.884;12.534;2023-03-19T12:56:55;101455.09;;;17.11;57.76
33414;BME280;60055;41.884;12.534;2023-03-19T13:02:21;101444.13;;;17.00;57.92
33414;BME280;60055;41.884;12.534;2023-03-19T13:04:55;101444.78;;;17.20;57.20
33414;BME280;60055;41.884;12.534;2023-03-19T13:10:20;101440.69;;;17.30;56.81
33414;BME280;60055;41.884;12.534;2023-03-19T13:12:47;101445.81;;;17.35;57.14
33414;BME280;60055;41.884;12.534;2023-03-19T13:15:35;101441.28;;;17.37;57.08
33414;BME280;60055;41.884;12.534;2023-03-19T13:18:07;101445.56;;;17.40;56.42
33414;BME280;60055;41.884;12.534;2023-03-19T13:23:29;101455.22;;;17.42;56.32
33414;BME280;60055;41.884;12.534;2023-03-19T13:25:57;101449.00;;;17.42;56.58
33414;BME280;60055;41.884;12.534;2023-03-19T13:28:33;101446.00;;;17.48;56.35
33414;BME280;60055;41.884;12.534;2023-03-19T13:33:33;101438.28;;;17.43;55.91
33414;BME280;60055;41.884;12.534;2023-03-19T13:36:08;101437.91;;;17.16;56.86
33414;BME280;60055;41.884;12.534;2023-03-19T13:38:49;101446.38;;;17.24;56.66
33414;BME280;60055;41.884;12.534;2023-03-19T13:44:09;101435.34;;;17.30;56.45
33414;BME280;60055;41.884;12.534;2023-03-19T13:46:43;101442.13;;;17.20;56.64
33414;BME280;60055;41.884;12.534;2023-03-19T13:51:46;101433.41;;;17.17;56.62
33414;BME280;60055;41.884;12.534;2023-03-19T13:54:18;101439.00;;;17.12;56.70
33414;BME280;60055;41.884;12.534;2023-03-19T13:59:36;101434.28;;;17.17;56.76
33414;BME280;60055;41.884;12.534;2023-03-19T14:05:15;101428.56;;;17.08;57.23
33414;BME280;60055;41.884;12.534;2023-03-19T14:07:45;101429.81;;;17.01;57.63
33414;BME280;60055;41.884;12.534;2023-03-19T14:12:44;101428.38;;;16.76;58.46
33414;BME280;60055;41.884;12.534;2023-03-19T14:15:15;101426.53;;;16.96;58.06
33414;BME280;60055;41.884;12.534;2023-03-19T14:17:58;101416.41;;;17.02;57.66
33414;BME280;60055;41.884;12.534;2023-03-19T14:20:27;101412.81;;;17.03;57.32
33414;BME280;60055;41.884;12.534;2023-03-19T14:31:19;101403.53;;;16.04;61.45
33414;BME280;60055;41.884;12.534;2023-03-19T14:34:11;101392.78;;;16.24;60.70
33414;BME280;60055;41.884;12.534;2023-03-19T14:36:44;101391.34;;;16.17;61.00
33414;BME280;60055;41.884;12.534;2023-03-19T14:39:23;101386.81;;;16.36;60.49
33414;BME280;60055;41.884;12.534;2023-03-19T14:41:53;101388.09;;;16.47;60.05
33414;BME280;60055;41.884;12.534;2023-03-19T14:47:09;101390.09;;;16.60;59.63
33414;BME280;60055;41.884;12.534;2023-03-19T14:52:34;101386.28;;;16.66;59.61
33414;BME280;60055;41.884;12.534;2023-03-19T14:55:07;101377.88;;;16.73;58.80
33414;BME280;60055;41.884;12.534;2023-03-19T14:57:34;101374.28;;;16.74;59.15
33414;BME280;60055;41.884;12.534;2023-03-19T15:00:01;101378.34;;;16.81;58.73
33414;BME280;60055;41.884;12.534;2023-03-19T15:02:46;101372.94;;;16.66;59.31
33414;BME280;60055;41.884;12.534;2023-03-19T15:05:27;101379.16;;;16.48;59.90
33414;BME280;60055;41.884;12.534;2023-03-19T15:07:57;101378.56;;;16.60;59.83
33414;BME280;60055;41.884;12.534;2023-03-19T15:19:21;101379.53;;;16.76;59.15
33414;BME280;60055;41.884;12.534;2023-03-19T15:21:48;101371.66;;;16.73;59.08
33414;BME280;60055;41.884;12.534;2023-03-19T15:24:15;101368.88;;;16.76;58.66
33414;BME280;60055;41.884;12.534;2023-03-19T15:26:43;101377.97;;;16.72;59.06
33414;BME280;60055;41.884;12.534;2023-03-19T15:29:10;101375.03;;;16.76;58.94
33414;BME280;60055;41.884;12.534;2023-03-19T15:31:45;101378.34;;;16.64;59.09
33414;BME280;60055;41.884;12.534;2023-03-19T15:34:22;101376.16;;;16.72;58.73
33414;BME280;60055;41.884;12.534;2023-03-19T15:36:54;101374.59;;;16.68;58.95
33414;BME280;60055;41.884;12.534;2023-03-19T15:39:24;101371.81;;;16.70;59.07
33414;BME280;60055;41.884;12.534;2023-03-19T15:41:53;101377.81;;;16.75;58.69
33414;BME280;60055;41.884;12.534;2023-03-19T15:44:45;101372.09;;;16.65;59.11
33414;BME280;60055;41.884;12.534;2023-03-19T15:47:18;101376.22;;;16.71;59.32
33414;BME280;60055;41.884;12.534;2023-03-19T15:49:56;101372.84;;;16.67;59.48
33414;BME280;60055;41.884;12.534;2023-03-19T15:52:24;101369.31;;;16.67;59.48
33414;BME280;60055;41.884;12.534;2023-03-19T15:54:53;101379.59;;;16.57;60.14
33414;BME280;60055;41.884;12.534;2023-03-19T15:57:19;101376.66;;;16.45;60.84
33414;BME280;60055;41.884;12.534;2023-03-19T15:59:51;101376.44;;;16.49;60.65
33414;BME280;60055;41.884;12.534;2023-03-19T16:02:32;101386.88;;;15.99;62.50
33414;BME280;60055;41.884;12.534;2023-03-19T16:04:59;101376.06;;;16.02;62.20
33414;BME280;60055;41.884;12.534;2023-03-19T16:07:38;101383.13;;;16.22;61.06
33414;BME280;60055;41.884;12.534;2023-03-19T16:10:41;101380.00;;;16.31;61.16
33414;BME280;60055;41.884;12.534;2023-03-19T16:15:53;101382.28;;;16.39;61.42
33414;BME280;60055;41.884;12.534;2023-03-19T16:23:17;101392.88;;;16.04;62.96
33414;BME280;60055;41.884;12.534;2023-03-19T16:25:44;101399.97;;;15.85;63.08
33414;BME280;60055;41.884;12.534;2023-03-19T16:28:19;101400.22;;;15.80;63.55
33414;BME280;60055;41.884;12.534;2023-03-19T16:30:48;101415.53;;;15.75;63.68
33414;BME280;60055;41.884;12.534;2023-03-19T16:33:14;101405.69;;;15.77;63.38
33414;BME280;60055;41.884;12.534;2023-03-19T16:35:40;101409.72;;;15.86;63.33
33414;BME280;60055;41.884;12.534;2023-03-19T16:38:24;101416.47;;;15.93;62.89
33414;BME280;60055;41.884;12.534;2023-03-19T16:41:16;101412.88;;;15.75;63.64
33414;BME280;60055;41.884;12.534;2023-03-19T16:43:44;101416.69;;;15.70;64.02
33414;BME280;60055;41.884;12.534;2023-03-19T16:46:11;101416.09;;;15.63;63.78
33414;BME280;60055;41.884;12.534;2023-03-19T16:48:38;101419.63;;;15.82;63.25
33414;BME280;60055;41.884;12.534;2023-03-19T16:51:07;101420.91;;;15.55;63.85
33414;BME280;60055;41.884;12.534;2023-03-19T16:53:34;101416.53;;;15.54;64.20
33414;BME280;60055;41.884;12.534;2023-03-19T16:56:14;101413.66;;;15.59;63.81
33414;BME280;60055;41.884;12.534;2023-03-19T16:58:43;101420.72;;;15.60;63.96
33414;BME280;60055;41.884;12.534;2023-03-19T17:01:19;101415.63;;;15.74;62.92
33414;BME280;60055;41.884;12.534;2023-03-19T17:03:46;101422.22;;;15.65;63.17
33414;BME280;60055;41.884;12.534;2023-03-19T17:06:13;101421.72;;;15.76;62.61
33414;BME280;60055;41.884;12.534;2023-03-19T17:08:39;101418.78;;;15.82;62.52
33414;BME280;60055;41.884;12.534;2023-03-19T17:11:05;101425.47;;;15.72;62.56
33414;BME280;60055;41.884;12.534;2023-03-19T17:13:32;101426.03;;;15.78;62.71
33414;BME280;60055;41.884;12.534;2023-03-19T17:16:02;101432.91;;;15.84;62.19
33414;BME280;60055;41.884;12.534;2023-03-19T17:18:30;101425.25;;;15.58;62.72
33414;BME280;60055;41.884;12.534;2023-03-19T17:21:06;101440.34;;;15.37;63.49
33414;BME280;60055;41.884;12.534;2023-03-19T17:23:33;101445.41;;;15.43;62.98
33414;BME280;60055;41.884;12.534;2023-03-19T17:26:24;101445.97;;;15.51;63.29
33414;BME280;60055;41.884;12.534;2023-03-19T17:28:48;101452.50;;;15.43;63.18
33414;BME280;60055;41.884;12.534;2023-03-19T17:31:22;101454.91;;;15.28;63.72
33414;BME280;60055;41.884;12.534;2023-03-19T17:33:48;101450.13;;;15.37;63.55
33414;BME280;60055;41.884;12.534;2023-03-19T17:36:14;101456.81;;;15.45;63.37
33414;BME280;60055;41.884;12.534;2023-03-19T17:38:39;101457.25;;;15.36;63.42
33414;BME280;60055;41.884;12.534;2023-03-19T17:41:14;101463.22;;;15.41;63.54
33414;BME280;60055;41.884;12.534;2023-03-19T17:43:41;101461.28;;;15.24;64.33
33414;BME280;60055;41.884;12.534;2023-03-19T17:46:10;101473.53;;;15.08;64.74
33414;BME280;60055;41.884;12.534;2023-03-19T17:48:36;101470.13;;;15.25;64.43
33414;BME280;60055;41.884;12.534;2023-03-19T17:51:02;101465.69;;;15.25;63.90
33414;BME280;60055;41.884;12.534;2023-03-19T17:53:29;101463.22;;;15.01;63.88
33414;BME280;60055;41.884;12.534;2023-03-19T17:55:54;101478.41;;;15.19;63.82
33414;BME280;60055;41.884;12.534;2023-03-19T17:58:21;101471.84;;;15.27;63.09
33414;BME280;60055;41.884;12.534;2023-03-19T18:00:47;101465.69;;;15.25;63.51
33414;BME280;60055;41.884;12.534;2023-03-19T18:03:15;101467.56;;;15.23;62.94
33414;BME280;60055;41.884;12.534;2023-03-19T18:05:44;101471.84;;;15.27;62.96
33414;BME280;60055;41.884;12.534;2023-03-19T18:08:13;101470.38;;;15.20;63.22
33414;BME280;60055;41.884;12.534;2023-03-19T18:10:39;101478.59;;;15.34;62.44
33414;BME280;60055;41.884;12.534;2023-03-19T18:13:06;101481.94;;;15.40;62.29
33414;BME280;60055;41.884;12.534;2023-03-19T18:15:39;101478.19;;;15.44;62.86
33414;BME280;60055;41.884;12.534;2023-03-19T18:20:52;101485.75;;;15.54;62.85
33414;BME280;60055;41.884;12.534;2023-03-19T18:23:29;101485.53;;;15.59;62.55
33414;BME280;60055;41.884;12.534;2023-03-19T18:26:02;101489.59;;;15.47;63.33
33414;BME280;60055;41.884;12.534;2023-03-19T18:28:39;101484.94;;;15.52;63.60
33414;BME280;60055;41.884;12.534;2023-03-19T18:31:28;101491.66;;;15.61;63.37
33414;BME280;60055;41.884;12.534;2023-03-19T18:37:47;101491.22;;;15.51;64.18
33414;BME280;60055;41.884;12.534;2023-03-19T18:41:15;101492.06;;;15.52;63.93
33414;BME280;60055;41.884;12.534;2023-03-19T18:43:40;101490.94;;;15.57;64.11
33414;BME280;60055;41.884;12.534;2023-03-19T18:46:10;101497.91;;;15.60;63.75
33414;BME280;60055;41.884;12.534;2023-03-19T18:48:43;101495.13;;;15.63;64.00
33414;BME280;60055;41.884;12.534;2023-03-19T18:51:12;101496.03;;;15.62;64.33
33414;BME280;60055;41.884;12.534;2023-03-19T18:53:41;101491.66;;;15.61;64.46
33414;BME280;60055;41.884;12.534;2023-03-19T18:59:31;101502.97;;;15.66;64.48
33414;BME280;60055;41.884;12.534;2023-03-19T19:04:38;101507.81;;;15.36;65.98
33414;BME280;60055;41.884;12.534;2023-03-19T19:07:05;101500.81;;;15.13;66.60
33414;BME280;60055;41.884;12.534;2023-03-19T19:09:31;101507.22;;;15.29;65.92
33414;BME280;60055;41.884;12.534;2023-03-19T19:11:58;101500.28;;;15.25;66.52
33414;BME280;60055;41.884;12.534;2023-03-19T19:14:24;101501.28;;;15.23;66.26
33414;BME280;60055;41.884;12.534;2023-03-19T19:16:51;101504.69;;;15.26;66.30
33414;BME280;60055;41.884;12.534;2023-03-19T19:19:20;101502.47;;;15.36;65.53
33414;BME280;60055;41.884;12.534;2023-03-19T19:21:52;101497.81;;;15.41;65.63
33414;BME280;60055;41.884;12.534;2023-03-19T19:24:18;101504.28;;;15.35;66.12
33414;BME280;60055;41.884;12.534;2023-03-19T19:26:46;101501.88;;;15.29;65.90
33414;BME280;60055;41.884;12.534;2023-03-19T19:29:18;101512.66;;;15.26;65.96
33414;BME280;60055;41.884;12.534;2023-03-19T19:31:45;101499.88;;;15.14;66.51
33414;BME280;60055;41.884;12.534;2023-03-19T19:34:16;101507.59;;;15.20;66.47
33414;BME280;60055;41.884;12.534;2023-03-19T19:36:43;101509.09;;;15.27;66.15
33414;BME280;60055;41.884;12.534;2023-03-19T19:39:08;101510.66;;;15.31;65.94
33414;BME280;60055;41.884;12.534;2023-03-19T19:41:37;101508.72;;;15.35;66.11
33414;BME280;60055;41.884;12.534;2023-03-19T19:44:03;101504.97;;;15.41;66.01
33414;BME280;60055;41.884;12.534;2023-03-19T19:46:30;101509.53;;;15.37;66.67
33414;BME280;60055;41.884;12.534;2023-03-19T19:48:57;101513.72;;;15.43;66.45
33414;BME280;60055;41.884;12.534;2023-03-19T19:51:25;101514.41;;;15.48;66.29
33414;BME280;60055;41.884;12.534;2023-03-19T19:53:51;101509.91;;;15.50;66.32
33414;BME280;60055;41.884;12.534;2023-03-19T19:56:20;101509.03;;;15.49;66.58
33414;BME280;60055;41.884;12.534;2023-03-19T19:58:47;101505.59;;;15.46;66.81
33414;BME280;60055;41.884;12.534;2023-03-19T20:01:23;101510.00;;;15.47;66.83
33414;BME280;60055;41.884;12.534;2023-03-19T20:03:50;101508.09;;;15.50;66.96
33414;BME280;60055;41.884;12.534;2023-03-19T20:06:19;101510.69;;;15.52;67.27
33414;BME280;60055;41.884;12.534;2023-03-19T20:08:45;101506.94;;;15.35;67.21
33414;BME280;60055;41.884;12.534;2023-03-19T20:11:18;101507.03;;;15.34;67.19
33414;BME280;60055;41.884;12.534;2023-03-19T20:13:46;101513.13;;;15.36;67.31
33414;BME280;60055;41.884;12.534;2023-03-19T20:16:20;101511.13;;;15.41;66.54
33414;BME280;60055;41.884;12.534;2023-03-19T20:18:47;101508.41;;;15.43;66.41
33414;BME280;60055;41.884;12.534;2023-03-19T20:21:14;101521.66;;;15.44;66.98
33414;BME280;60055;41.884;12.534;2023-03-19T20:23:41;101507.41;;;15.45;66.22
33414;BME280;60055;41.884;12.534;2023-03-19T20:26:15;101504.72;;;15.45;66.61
33414;BME280;60055;41.884;12.534;2023-03-19T20:28:42;101507.25;;;15.50;66.97
33414;BME280;60055;41.884;12.534;2023-03-19T20:31:16;101506.97;;;15.56;66.67
33414;BME280;60055;41.884;12.534;2023-03-19T20:33:41;101517.69;;;15.54;66.57
33414;BME280;60055;41.884;12.534;2023-03-19T20:36:11;101514.41;;;15.48;66.74
33414;BME280;60055;41.884;12.534;2023-03-19T20:38:39;101519.19;;;15.40;67.21
33414;BME280;60055;41.884;12.534;2023-03-19T20:41:08;101517.31;;;15.42;67.27
33414;BME280;60055;41.884;12.534;2023-03-19T20:43:39;101512.72;;;15.45;67.01
33414;BME280;60055;41.884;12.534;2023-03-19T20:46:04;101520.66;;;15.47;66.80
33414;BME280;60055;41.884;12.534;2023-03-19T20:48:32;101520.69;;;15.45;66.95
33414;BME280;60055;41.884;12.534;2023-03-19T20:50:59;101528.69;;;15.45;67.15
33414;BME280;60055;41.884;12.534;2023-03-19T20:53:25;101524.31;;;15.44;66.82
33414;BME280;60055;41.884;12.534;2023-03-19T20:55:51;101521.72;;;15.43;67.13
33414;BME280;60055;41.884;12.534;2023-03-19T21:00:47;101531.44;;;15.44;67.52
33414;BME280;60055;41.884;12.534;2023-03-19T21:03:20;101527.31;;;15.37;68.23
33414;BME280;60055;41.884;12.534;2023-03-19T21:05:51;101531.50;;;15.42;68.32
33414;BME280;60055;41.884;12.534;2023-03-19T21:08:32;101532.34;;;15.43;68.37
33414;BME280;60055;41.884;12.534;2023-03-19T21:10:59;101526.47;;;15.34;68.74
33414;BME280;60055;41.884;12.534;2023-03-19T21:13:26;101529.97;;;15.37;68.65
33414;BME280;60055;41.884;12.534;2023-03-19T21:15:52;101519.59;;;15.30;69.03
33414;BME280;60055;41.884;12.534;2023-03-19T21:18:18;101525.69;;;15.32;68.85
33414;BME280;60055;41.884;12.534;2023-03-19T21:20:47;101528.63;;;15.26;69.63
33414;BME280;60055;41.884;12.534;2023-03-19T21:23:28;101529.16;;;15.34;68.97
33414;BME280;60055;41.884;12.534;2023-03-19T21:26:03;101525.50;;;15.37;68.46
33414;BME280;60055;41.884;12.534;2023-03-19T21:28:34;101528.22;;;15.35;68.97
33414;BME280;60055;41.884;12.534;2023-03-19T21:31:00;101519.81;;;15.24;69.65
33414;BME280;60055;41.884;12.534;2023-03-19T21:33:31;101508.22;;;15.27;69.40
33414;BME280;60055;41.884;12.534;2023-03-19T21:35:58;101515.31;;;15.26;69.34
33414;BME280;60055;41.884;12.534;2023-03-19T21:38:24;101507.53;;;15.22;69.90
33414;BME280;60055;41.884;12.534;2023-03-19T21:40:50;101505.47;;;15.28;69.98
33414;BME280;60055;41.884;12.534;2023-03-19T21:43:21;101495.81;;;15.26;69.34
33414;BME280;60055;41.884;12.534;2023-03-19T21:45:49;101499.28;;;15.28;69.67
33414;BME280;60055;41.884;12.534;2023-03-19T21:48:33;101503.88;;;15.24;69.61
33414;BME280;60055;41.884;12.534;2023-03-19T21:51:00;101508.94;;;15.30;69.43
33414;BME280;60055;41.884;12.534;2023-03-19T21:53:27;101516.97;;;15.29;69.41
33414;BME280;60055;41.884;12.534;2023-03-19T21:55:55;101508.13;;;15.28;69.24
33414;BME280;60055;41.884;12.534;2023-03-19T21:58:29;101509.31;;;15.21;69.84
33414;BME280;60055;41.884;12.534;2023-03-19T22:00:55;101511.06;;;15.22;69.49
33414;BME280;60055;41.884;12.534;2023-03-19T22:03:22;101511.94;;;15.23;69.41
33414;BME280;60055;41.884;12.534;2023-03-19T22:05:49;101507.59;;;15.20;69.73
33414;BME280;60055;41.884;12.534;2023-03-19T22:08:18;101511.19;;;15.19;69.62
33414;BME280;60055;41.884;12.534;2023-03-19T22:10:45;101507.78;;;15.16;70.06
33414;BME280;60055;41.884;12.534;2023-03-19T22:13:38;101509.84;;;15.09;69.84
33414;BME280;60055;41.884;12.534;2023-03-19T22:16:03;101510.72;;;15.10;70.35
33414;BME280;60055;41.884;12.534;2023-03-19T22:18:29;101506.13;;;15.13;69.98
33414;BME280;60055;41.884;12.534;2023-03-19T22:20:56;101509.28;;;15.01;71.05
33414;BME280;60055;41.884;12.534;2023-03-19T22:23:23;101510.25;;;15.00;70.71
33414;BME280;60055;41.884;12.534;2023-03-19T22:25:50;101511.78;;;15.06;70.41
33414;BME280;60055;41.884;12.534;2023-03-19T22:28:31;101504.78;;;15.03;70.96
33414;BME280;60055;41.884;12.534;2023-03-19T22:30:59;101501.91;;;15.08;70.48
33414;BME280;60055;41.884;12.534;2023-03-19T22:33:27;101500.22;;;15.07;70.42
33414;BME280;60055;41.884;12.534;2023-03-19T22:36:00;101500.44;;;15.01;71.09
33414;BME280;60055;41.884;12.534;2023-03-19T22:38:32;101511.03;;;15.02;70.85
33414;BME280;60055;41.884;12.534;2023-03-19T22:40:59;101505.84;;;14.99;70.98
33414;BME280;60055;41.884;12.534;2023-03-19T22:43:29;101500.41;;;15.02;70.94
33414;BME280;60055;41.884;12.534;2023-03-19T22:45:58;101497.34;;;15.11;70.21
33414;BME280;60055;41.884;12.534;2023-03-19T22:48:26;101495.03;;;15.04;70.61
33414;BME280;60055;41.884;12.534;2023-03-19T22:50:51;101493.28;;;15.03;70.61
33414;BME280;60055;41.884;12.534;2023-03-19T22:53:25;101487.28;;;14.98;70.85
33414;BME280;60055;41.884;12.534;2023-03-19T22:55:51;101483.69;;;14.99;70.91
33414;BME280;60055;41.884;12.534;2023-03-19T22:58:17;101481.03;;;14.99;71.11
33414;BME280;60055;41.884;12.534;2023-03-19T23:00:43;101483.66;;;15.00;70.63
33414;BME280;60055;41.884;12.534;2023-03-19T23:03:16;101478.34;;;15.00;70.87
33414;BME280;60055;41.884;12.534;2023-03-19T23:05:47;101476.50;;;15.01;70.81
33414;BME280;60055;41.884;12.534;2023-03-19T23:08:18;101481.81;;;15.01;70.79
33414;BME280;60055;41.884;12.534;2023-03-19T23:10:44;101478.34;;;15.00;70.50
33414;BME280;60055;41.884;12.534;2023-03-19T23:13:20;101475.59;;;15.02;70.53
33414;BME280;60055;41.884;12.534;2023-03-19T23:15:51;101469.41;;;15.01;70.73
33414;BME280;60055;41.884;12.534;2023-03-19T23:18:21;101484.56;;;14.99;70.56
33414;BME280;60055;41.884;12.534;2023-03-19T23:20:49;101480.38;;;14.94;71.24
33414;BME280;60055;41.884;12.534;2023-03-19T23:23:20;101473.16;;;14.75;71.72
33414;BME280;60055;41.884;12.534;2023-03-19T23:25:46;101477.56;;;14.76;71.60
33414;BME280;60055;41.884;12.534;2023-03-19T23:28:23;101477.44;;;14.79;71.19
33414;BME280;60055;41.884;12.534;2023-03-19T23:31:01;101482.19;;;14.71;71.53
33414;BME280;60055;41.884;12.534;2023-03-19T23:33:28;101478.88;;;14.66;71.91
33414;BME280;60055;41.884;12.534;2023-03-19T23:36:04;101473.59;;;14.65;71.94
33414;BME280;60055;41.884;12.534;2023-03-19T23:38:33;101469.41;;;14.59;72.25
33414;BME280;60055;41.884;12.534;2023-03-19T23:40:59;101464.88;;;14.61;72.13
33414;BME280;60055;41.884;12.534;2023-03-19T23:43:34;101471.19;;;14.59;72.22
33414;BME280;60055;41.884;12.534;2023-03-19T23:46:02;101477.25;;;14.62;72.24
33414;BME280;60055;41.884;12.534;2023-03-19T23:48:33;101470.63;;;14.72;71.84
33414;BME280;60055;41.884;12.534;2023-03-19T23:51:03;101470.56;;;14.74;71.47